createdAt,value
2023-04-28T00:03:28.531Z,16.67
2023-04-28T00:08:30.149Z,13.13
2023-04-28T00:13:31.663Z,14.10
2023-04-28T00:18:33.710Z,13.48
2023-04-28T00:23:35.452Z,16.63
2023-04-28T00:28:36.832Z,16.83
2023-04-28T00:33:38.839Z,16.52
2023-04-28T00:38:40.385Z,14.88
2023-04-28T00:43:48.306Z,16.65
2023-04-28T00:48:49.975Z,15.77
2023-04-28T00:53:51.596Z,17.23
2023-04-28T00:58:53.340Z,14.25
2023-04-28T01:03:55.100Z,15.82
2023-04-28T01:08:57.237Z,15.32
2023-04-28T01:14:00.061Z,15.73
2023-04-28T01:19:01.691Z,15.63
2023-04-28T01:24:03.113Z,17.05
2023-04-28T01:29:04.548Z,14.00
2023-04-28T01:34:05.982Z,14.68
2023-04-28T01:39:07.683Z,18.20
2023-04-28T01:44:09.264Z,18.05
2023-04-28T01:49:10.792Z,15.05
2023-04-28T01:54:12.166Z,14.48
2023-04-28T01:59:13.682Z,18.23
2023-04-28T02:04:15.407Z,17.70
2023-04-28T02:09:17.020Z,16.50
2023-04-28T02:14:18.684Z,15.88
2023-04-28T02:19:20.195Z,17.80
2023-04-28T02:24:21.642Z,16.63
2023-04-28T02:29:24.671Z,16.17
2023-04-28T02:34:26.073Z,15.43
2023-04-28T02:39:28.136Z,19.15
2023-04-28T02:44:29.512Z,18.35
2023-04-28T02:49:30.947Z,15.27
2023-04-28T02:54:34.301Z,15.80
2023-04-28T02:59:35.752Z,17.58
2023-04-28T03:04:37.211Z,17.17
2023-04-28T03:09:40.049Z,17.42
2023-04-28T03:14:42.527Z,20.13
2023-04-28T03:19:43.953Z,16.67
2023-04-28T03:24:45.461Z,18.33
2023-04-28T03:29:46.847Z,15.90
2023-04-28T03:34:48.260Z,17.15
2023-04-28T03:39:49.792Z,17.38
2023-04-28T03:44:51.389Z,20.20
2023-04-28T03:49:52.789Z,17.60
2023-04-28T03:54:54.225Z,15.80
2023-04-28T03:59:55.666Z,18.08
2023-04-28T04:04:57.269Z,19.55
2023-04-28T04:09:59.046Z,21.58
2023-04-28T04:15:00.398Z,21.35
2023-04-28T04:20:01.810Z,21.15
2023-04-28T04:25:03.663Z,19.45
2023-04-28T04:30:05.450Z,18.27
2023-04-28T04:35:06.961Z,19.73
2023-04-28T04:40:08.884Z,18.98
2023-04-28T04:45:10.479Z,18.52
2023-04-28T04:50:12.214Z,18.63
2023-04-28T04:55:13.584Z,18.88
2023-04-28T05:00:16.957Z,21.30
2023-04-28T05:05:21.751Z,19.08
2023-04-28T05:10:24.428Z,16.38
2023-04-28T05:15:25.903Z,19.45
2023-04-28T05:20:27.283Z,18.85
2023-04-28T05:25:28.802Z,18.40
2023-04-28T05:30:30.418Z,17.88
2023-04-28T05:35:32.703Z,18.42
2023-04-28T05:40:34.928Z,15.98
2023-04-28T05:45:36.348Z,20.42
2023-04-28T05:50:39.140Z,17.58
2023-04-28T05:55:40.766Z,18.10
2023-04-28T06:00:42.147Z,18.05
2023-04-28T06:05:44.039Z,17.55
2023-04-28T06:10:45.814Z,17.08
2023-04-28T06:15:47.228Z,18.85
2023-04-28T06:20:48.663Z,17.08
2023-04-28T06:25:50.131Z,19.02
2023-04-28T06:30:51.625Z,18.70
2023-04-28T06:35:53.397Z,18.85
2023-04-28T06:40:54.961Z,20.73
2023-04-28T06:45:56.384Z,17.92
2023-04-28T06:50:58.000Z,19.77
2023-04-28T06:55:59.438Z,17.38
2023-04-28T07:01:01.042Z,17.52
2023-04-28T07:06:03.608Z,17.35
2023-04-28T07:11:06.219Z,16.92
2023-04-28T07:16:08.256Z,20.48
2023-04-28T07:21:09.752Z,19.60
2023-04-28T07:26:14.308Z,18.98
2023-04-28T07:31:16.194Z,19.83
2023-04-28T07:36:17.712Z,15.98
2023-04-28T07:41:19.454Z,16.88
2023-04-28T07:46:20.920Z,16.70
2023-04-28T07:51:22.447Z,15.85
2023-04-28T07:56:24.540Z,17.48
2023-04-28T08:01:26.191Z,17.98
2023-04-28T08:06:30.184Z,17.23
2023-04-28T08:11:31.603Z,17.98
2023-04-28T08:16:34.446Z,16.42
2023-04-28T08:21:36.436Z,17.33
2023-04-28T08:26:38.630Z,19.85
2023-04-28T08:31:40.167Z,14.68
2023-04-28T08:36:41.665Z,17.42
2023-04-28T08:41:43.158Z,19.05
2023-04-28T08:46:45.584Z,17.85
2023-04-28T08:51:50.471Z,17.88
2023-04-28T08:56:52.077Z,14.73
2023-04-28T09:01:53.568Z,16.10
2023-04-28T09:06:55.440Z,16.65
2023-04-28T09:11:59.711Z,16.35
2023-04-28T09:17:01.689Z,18.50
2023-04-28T09:22:13.664Z,15.20
2023-04-28T09:27:33.232Z,17.75
2023-04-28T09:32:34.607Z,15.38
2023-04-28T09:37:37.787Z,15.77
2023-04-28T09:42:45.930Z,13.38
2023-04-28T09:47:48.373Z,15.18
2023-04-28T09:52:57.435Z,14.23
2023-04-28T09:58:04.077Z,18.20
2023-04-28T10:03:05.869Z,14.63
2023-04-28T10:08:07.674Z,16.67
2023-04-28T10:13:10.728Z,13.77
2023-04-28T10:18:23.096Z,16.83
2023-04-28T10:23:33.469Z,17.08
2023-04-28T10:28:34.986Z,18.45
2023-04-28T10:33:39.662Z,19.42
2023-04-28T10:39:04.319Z,16.13
2023-04-28T10:44:24.516Z,15.50
2023-04-28T10:49:46.004Z,18.33
2023-04-28T10:55:15.980Z,17.52
2023-04-28T11:00:28.581Z,18.70
2023-04-28T11:05:31.997Z,19.65
2023-04-28T11:10:51.897Z,19.08
2023-04-28T11:16:02.758Z,19.83
2023-04-28T11:21:04.295Z,19.38
2023-04-28T11:26:06.022Z,20.27
2023-04-28T11:31:11.460Z,19.83
2023-04-28T11:36:25.638Z,22.10
2023-04-28T11:41:27.229Z,17.70
2023-04-28T11:46:28.918Z,18.17
2023-04-28T11:51:32.406Z,18.30
2023-04-28T11:56:37.533Z,17.17
2023-04-28T12:01:49.348Z,20.02
2023-04-28T12:06:58.760Z,20.40
2023-04-28T12:12:02.901Z,19.40
2023-04-28T12:17:04.732Z,20.50
2023-04-28T12:22:07.923Z,18.52
2023-04-28T12:27:18.182Z,19.60
2023-04-28T12:32:20.481Z,19.90
2023-04-28T12:37:22.512Z,20.88
2023-04-28T12:42:24.317Z,19.88
2023-04-28T12:47:25.881Z,19.65
2023-04-28T12:52:27.613Z,18.83
2023-04-28T12:57:29.649Z,19.20
2023-04-28T13:02:31.447Z,19.67
2023-04-28T13:07:33.587Z,20.27
2023-04-28T13:12:35.050Z,19.00
2023-04-28T13:17:36.596Z,12.40
2023-04-28T13:22:38.141Z,12.23
2023-04-28T13:27:41.920Z,20.23
2023-04-28T13:32:44.747Z,19.73
2023-04-28T13:37:46.678Z,20.17
2023-04-28T13:42:48.122Z,18.42
2023-04-28T13:47:51.082Z,18.83
2023-04-28T13:52:52.832Z,19.63
2023-04-28T13:57:54.791Z,17.92
2023-04-28T14:02:57.089Z,20.00
2023-04-28T14:08:04.769Z,18.33
2023-04-28T14:13:06.283Z,16.27
2023-04-28T14:18:09.233Z,19.85
2023-04-28T14:23:10.721Z,19.92
2023-04-28T14:28:12.293Z,20.83
2023-04-28T14:33:13.728Z,20.67
2023-04-28T14:38:15.303Z,20.13
2023-04-28T14:43:25.840Z,20.02
2023-04-28T14:48:39.671Z,21.20
2023-04-28T14:53:48.570Z,21.85
2023-04-28T14:58:50.018Z,20.57
2023-04-28T15:03:51.685Z,21.27
2023-04-28T15:08:53.297Z,20.95
2023-04-28T15:13:55.014Z,17.83
2023-04-28T15:18:56.371Z,21.15
2023-04-28T15:24:00.145Z,20.05
2023-04-28T15:29:01.748Z,19.05
2023-04-28T15:34:03.457Z,19.70
2023-04-28T15:39:06.283Z,21.67
2023-04-28T15:44:09.966Z,23.90
2023-04-28T15:49:12.117Z,26.92
2023-04-28T15:54:20.990Z,26.70
2023-04-28T15:59:24.332Z,23.30
2023-04-28T16:04:25.881Z,26.17
2023-04-28T16:09:27.525Z,27.10
2023-04-28T16:14:29.132Z,28.98
2023-04-28T16:19:31.009Z,27.98
2023-04-28T16:24:34.314Z,28.73
2023-04-28T16:29:35.900Z,27.58
2023-04-28T16:34:37.293Z,29.00
2023-04-28T16:39:38.836Z,30.35
2023-04-28T16:44:40.271Z,27.88
2023-04-28T16:49:41.690Z,29.10
2023-04-28T16:54:43.152Z,30.20
2023-04-28T16:59:44.681Z,24.00
2023-04-28T17:04:46.912Z,28.20
2023-04-28T17:09:48.793Z,28.35
2023-04-28T17:14:54.020Z,29.17
2023-04-28T17:19:56.373Z,30.60
2023-04-28T17:24:57.944Z,35.47
2023-04-28T17:29:59.349Z,33.72
2023-04-28T17:35:01.204Z,41.95
2023-04-28T17:40:02.726Z,34.53
2023-04-28T17:45:04.940Z,37.78
2023-04-28T17:50:06.749Z,34.60
2023-04-28T17:55:08.257Z,33.60
2023-04-28T18:00:11.314Z,33.13
2023-04-28T18:05:12.797Z,33.95
2023-04-28T18:10:15.263Z,31.10
2023-04-28T18:15:16.793Z,32.83
2023-04-28T18:20:18.457Z,31.02
2023-04-28T18:25:20.192Z,34.75
2023-04-28T18:30:21.796Z,33.28
2023-04-28T18:35:23.529Z,29.55
2023-04-28T18:40:24.969Z,29.90
2023-04-28T18:45:35.374Z,29.90
2023-04-28T18:50:40.012Z,28.85
2023-04-28T18:55:41.744Z,34.72
2023-04-28T19:00:46.103Z,30.58
2023-04-28T19:05:48.171Z,26.77
2023-04-28T19:10:59.314Z,34.30
2023-04-28T19:16:00.946Z,29.70
2023-04-28T19:21:03.651Z,31.67
2023-04-28T19:26:05.166Z,28.30
2023-04-28T19:31:08.754Z,21.25
2023-04-28T19:36:10.246Z,24.08
2023-04-28T19:41:11.874Z,25.75
2023-04-28T19:46:13.836Z,24.48
2023-04-28T19:51:18.487Z,22.98
2023-04-28T19:56:20.611Z,23.60
2023-04-28T20:01:22.988Z,24.00
2023-04-28T20:06:24.390Z,19.85
2023-04-28T20:11:25.886Z,18.90
2023-04-28T20:16:29.588Z,19.17
2023-04-28T20:21:31.739Z,20.10
2023-04-28T20:26:33.153Z,18.90
2023-04-28T20:31:34.912Z,18.92
2023-04-28T20:36:37.921Z,20.63
2023-04-28T20:41:41.611Z,23.63
2023-04-28T20:46:43.541Z,21.50
2023-04-28T20:51:45.434Z,24.08
2023-04-28T20:56:46.834Z,25.33
2023-04-28T21:01:48.734Z,28.65
2023-04-28T21:06:51.453Z,27.23
2023-04-28T21:11:53.013Z,28.30
2023-04-28T21:16:54.769Z,28.17
2023-04-28T21:21:56.346Z,26.90
2023-04-28T21:26:59.614Z,26.38
2023-04-28T21:32:01.042Z,25.80
2023-04-28T21:37:02.631Z,28.33
2023-04-28T21:42:04.740Z,31.98
2023-04-28T21:47:06.905Z,26.35
2023-04-28T21:52:08.653Z,32.67
2023-04-28T21:57:10.090Z,30.45
2023-04-28T22:02:12.590Z,29.40
2023-04-28T22:07:14.036Z,32.13
2023-04-28T22:12:15.579Z,31.67
2023-04-28T22:17:17.335Z,31.55
2023-04-28T22:22:18.743Z,29.27
2023-04-28T22:27:20.067Z,31.25
2023-04-28T22:32:22.986Z,29.75
2023-04-28T22:37:24.463Z,31.02
2023-04-28T22:42:25.856Z,25.95
2023-04-28T22:47:27.314Z,25.80
2023-04-28T22:52:28.734Z,23.52
2023-04-28T22:57:30.104Z,21.83
2023-04-28T23:02:31.891Z,19.42
2023-04-28T23:07:33.491Z,23.42
2023-04-28T23:12:34.878Z,26.77
2023-04-28T23:17:37.502Z,26.73
2023-04-28T23:22:39.003Z,21.65
2023-04-28T23:27:40.365Z,25.23
2023-04-28T23:32:42.800Z,24.30
2023-04-28T23:37:44.282Z,25.35
2023-04-28T23:42:45.929Z,25.00
2023-04-28T23:47:47.837Z,32.70
2023-04-28T23:52:49.746Z,22.90
2023-04-28T23:57:51.098Z,23.48
